createdAt,value
2022-09-12T00:00:17.850Z,11.40
2022-09-12T00:05:21.475Z,11.40
2022-09-12T00:10:26.411Z,11.40
2022-09-12T00:15:29.458Z,11.20
2022-09-12T00:20:32.606Z,11.10
2022-09-12T00:25:41.566Z,11.00
2022-09-12T00:30:46.276Z,11.00
2022-09-12T00:35:52.982Z,11.00
2022-09-12T00:40:57.461Z,11.00
2022-09-12T00:46:04.755Z,10.90
2022-09-12T00:51:08.497Z,10.90
2022-09-12T00:56:15.920Z,10.80
2022-09-12T01:01:19.688Z,10.80
2022-09-12T01:06:27.458Z,10.80
2022-09-12T01:11:34.428Z,10.80
2022-09-12T01:16:42.580Z,10.60
2022-09-12T01:21:55.458Z,10.60
2022-09-12T01:27:19.182Z,10.60
2022-09-12T01:32:32.215Z,10.50
2022-09-12T01:37:39.713Z,10.30
2022-09-12T01:42:49.831Z,10.30
2022-09-12T01:47:59.165Z,10.30
2022-09-12T01:53:07.044Z,10.30
2022-09-12T01:58:13.803Z,10.30
2022-09-12T02:03:24.142Z,10.30
2022-09-12T02:08:32.112Z,10.20
2022-09-12T02:13:41.391Z,10.10
2022-09-12T02:18:53.139Z,10.10
2022-09-12T02:23:59.539Z,10.20
2022-09-12T02:29:04.267Z,9.90
2022-09-12T02:34:21.704Z,10.00
2022-09-12T02:39:25.054Z,9.90
2022-09-12T02:44:30.099Z,10.00
2022-09-12T02:49:34.851Z,10.00
2022-09-12T02:54:38.388Z,10.00
2022-09-12T02:59:41.505Z,10.00
2022-09-12T03:04:59.895Z,9.90
2022-09-12T03:10:12.294Z,9.90
2022-09-12T03:15:29.242Z,9.80
2022-09-12T03:20:45.125Z,9.70
2022-09-12T03:25:53.245Z,9.60
2022-09-12T03:30:56.621Z,9.70
2022-09-12T03:36:01.325Z,9.70
2022-09-12T03:41:04.879Z,9.60
2022-09-12T03:46:08.313Z,9.60
2022-09-12T03:51:12.866Z,9.60
2022-09-12T03:56:18.107Z,9.60
2022-09-12T04:01:21.334Z,9.50
2022-09-12T04:06:25.935Z,9.50
2022-09-12T04:11:28.957Z,9.40
2022-09-12T04:16:32.899Z,9.40
2022-09-12T04:21:37.723Z,9.50
2022-09-12T04:26:40.779Z,9.40
2022-09-12T04:31:44.118Z,9.50
2022-09-12T04:36:48.548Z,9.40
2022-09-12T04:41:51.976Z,9.50
2022-09-12T04:46:55.343Z,9.30
2022-09-12T04:51:59.840Z,9.40
2022-09-12T04:57:02.940Z,9.50
2022-09-12T05:02:06.205Z,9.70
2022-09-12T05:07:10.853Z,9.80
2022-09-12T05:12:14.633Z,10.00
2022-09-12T05:17:17.733Z,10.20
2022-09-12T05:22:22.871Z,10.40
2022-09-12T05:27:25.938Z,10.60
2022-09-12T05:32:31.739Z,10.70
2022-09-12T05:37:36.113Z,10.90
2022-09-12T05:42:39.204Z,11.20
2022-09-12T05:47:43.863Z,11.30
2022-09-12T05:52:48.557Z,11.60
2022-09-12T05:57:51.733Z,11.90
2022-09-12T06:02:54.957Z,12.00
2022-09-12T06:07:59.378Z,12.30
2022-09-12T06:13:03.967Z,12.80
2022-09-12T06:18:07.100Z,13.20
2022-09-12T06:23:11.542Z,15.00
2022-09-12T06:28:14.672Z,17.00
2022-09-12T06:33:18.262Z,18.50
2022-09-12T06:38:22.726Z,19.60
2022-09-12T06:43:25.851Z,20.50
2022-09-12T06:48:29.380Z,20.90
2022-09-12T06:53:34.867Z,21.40
2022-09-12T06:58:38.401Z,21.60
2022-09-12T07:03:42.683Z,22.30
2022-09-12T07:08:47.840Z,22.60
2022-09-12T07:13:52.668Z,23.10
2022-09-12T07:18:57.906Z,21.20
2022-09-12T07:24:02.899Z,21.20
2022-09-12T07:29:32.733Z,23.20
2022-09-12T07:34:28.864Z,24.40
2022-09-12T07:43:37.265Z,23.60
2022-09-12T07:48:41.182Z,24.50
2022-09-12T07:53:44.698Z,25.20
2022-09-12T07:58:49.130Z,25.50
2022-09-12T08:03:55.371Z,25.20
2022-09-12T08:08:59.922Z,25.30
2022-09-12T08:14:05.788Z,25.70
2022-09-12T08:19:08.895Z,26.30
2022-09-12T08:24:12.562Z,26.20
2022-09-12T08:29:17.744Z,26.30
2022-09-12T08:34:21.210Z,26.60
2022-09-12T08:39:24.893Z,26.50
2022-09-12T08:45:02.645Z,25.70
2022-09-12T08:50:18.835Z,26.70
2022-09-12T08:55:32.807Z,25.60
2022-09-12T09:00:43.002Z,26.90
2022-09-12T09:05:51.438Z,26.80
2022-09-12T09:11:05.171Z,26.80
2022-09-12T09:16:18.511Z,27.00
2022-09-12T09:21:26.695Z,27.00
2022-09-12T09:26:37.225Z,27.00
2022-09-12T09:31:45.331Z,27.60
2022-09-12T09:36:51.627Z,27.70
2022-09-12T09:42:11.151Z,27.50
2022-09-12T09:47:17.522Z,27.80
2022-09-12T09:52:26.282Z,26.80
2022-09-12T09:57:41.569Z,26.70
2022-09-12T10:03:24.464Z,26.20
2022-09-12T10:08:30.084Z,24.40
2022-09-12T10:13:37.920Z,25.20
2022-09-12T10:18:43.097Z,24.70
2022-09-12T10:23:47.566Z,24.40
2022-09-12T10:28:54.113Z,25.10
2022-09-12T10:34:00.890Z,25.80
2022-09-12T10:39:05.611Z,25.80
2022-09-12T10:44:16.695Z,26.20
2022-09-12T10:49:24.360Z,26.10
2022-09-12T10:54:28.578Z,26.50
2022-09-12T10:59:41.054Z,26.70
2022-09-12T11:04:56.141Z,25.90
2022-09-12T11:10:06.296Z,25.20
2022-09-12T11:15:27.557Z,26.50
2022-09-12T11:20:51.838Z,26.50
2022-09-12T11:25:58.847Z,25.20
2022-09-12T11:31:28.875Z,25.20
2022-09-12T11:36:41.954Z,24.80
2022-09-12T11:41:51.242Z,25.50
2022-09-12T11:46:54.601Z,25.20
2022-09-12T11:52:05.421Z,25.60
2022-09-12T11:57:17.777Z,24.90
2022-09-12T12:02:26.653Z,25.40
2022-09-12T12:07:45.435Z,25.80
2022-09-12T12:12:50.065Z,26.00
2022-09-12T12:18:05.960Z,26.20
2022-09-12T12:23:26.326Z,26.50
2022-09-12T12:28:59.143Z,26.30
2022-09-12T12:34:22.637Z,26.10
2022-09-12T12:40:01.233Z,25.50
2022-09-12T12:45:48.423Z,25.40
2022-09-12T12:50:51.653Z,25.30
2022-09-12T12:55:56.924Z,25.40
2022-09-12T13:01:11.280Z,25.10
2022-09-12T13:06:29.733Z,25.20
2022-09-12T13:11:35.865Z,25.50
2022-09-12T13:16:53.896Z,25.50
2022-09-12T13:21:57.806Z,25.40
2022-09-12T13:27:02.207Z,25.30
2022-09-12T13:32:07.014Z,24.70
2022-09-12T13:37:30.392Z,24.40
2022-09-12T13:42:40.168Z,24.40
2022-09-12T13:47:46.435Z,24.30
2022-09-12T13:52:54.451Z,23.90
2022-09-12T13:58:00.496Z,23.50
2022-09-12T14:03:43.740Z,23.70
2022-09-12T14:08:48.251Z,23.80
2022-09-12T14:13:52.707Z,23.60
2022-09-12T14:18:57.577Z,23.70
2022-09-12T14:24:01.799Z,23.80
2022-09-12T14:29:06.593Z,23.60
2022-09-12T14:34:12.680Z,23.50
2022-09-12T14:39:22.427Z,23.00
2022-09-12T14:44:27.552Z,22.80
2022-09-12T14:49:34.575Z,22.80
2022-09-12T14:54:40.351Z,22.60
2022-09-12T14:59:43.433Z,22.00
2022-09-12T15:04:49.436Z,22.10
2022-09-12T15:09:53.231Z,22.20
2022-09-12T15:15:00.951Z,22.00
2022-09-12T15:20:06.656Z,21.70
2022-09-12T15:25:12.686Z,21.40
2022-09-12T15:30:16.060Z,21.50
2022-09-12T15:35:23.559Z,21.30
2022-09-12T15:40:26.675Z,21.10
2022-09-12T15:45:32.293Z,21.20
2022-09-12T15:50:36.866Z,21.00
2022-09-12T15:55:40.425Z,20.90
2022-09-12T16:00:43.809Z,20.80
2022-09-12T16:05:48.937Z,20.40
2022-09-12T16:10:55.851Z,20.20
2022-09-12T16:16:01.405Z,20.00
2022-09-12T16:21:08.196Z,19.80
2022-09-12T16:26:15.091Z,19.60
2022-09-12T16:53:58.706Z,18.60
2022-09-12T16:59:01.931Z,18.30
2022-09-12T17:04:05.212Z,18.00
2022-09-12T17:09:11.240Z,17.70
2022-09-12T17:14:14.612Z,17.50
2022-09-12T17:19:21.503Z,17.30
2022-09-12T17:24:26.897Z,17.10
2022-09-12T17:29:30.010Z,16.90
2022-09-12T17:34:33.205Z,16.60
2022-09-12T17:39:37.564Z,16.40
2022-09-12T17:44:40.673Z,16.30
2022-09-12T17:49:44.924Z,16.10
2022-09-12T17:54:49.418Z,15.90
2022-09-12T17:59:52.599Z,15.70
2022-09-12T18:04:55.702Z,15.60
2022-09-12T18:10:00.390Z,15.60
2022-09-12T18:15:03.703Z,15.40
2022-09-12T18:20:07.464Z,15.20
2022-09-12T18:25:12.202Z,15.00
2022-09-12T18:30:21.672Z,15.00
2022-09-12T18:35:25.583Z,14.80
2022-09-12T18:40:30.130Z,14.70
2022-09-12T18:45:34.026Z,14.60
2022-09-12T18:50:37.115Z,14.50
2022-09-12T18:55:42.404Z,14.30
2022-09-12T19:00:48.373Z,14.10
2022-09-12T19:05:51.582Z,13.90
2022-09-12T19:10:56.735Z,13.80
2022-09-12T19:16:01.302Z,13.60
2022-09-12T19:21:05.358Z,13.50
2022-09-12T19:26:11.665Z,13.40
2022-09-12T19:31:18.965Z,13.30
2022-09-12T19:36:43.830Z,13.20
2022-09-12T19:41:47.929Z,13.20
2022-09-12T19:46:51.159Z,13.00
2022-09-12T19:51:54.220Z,13.00
2022-09-12T19:56:58.566Z,12.80
2022-09-12T20:02:01.685Z,12.80
2022-09-12T20:07:04.850Z,12.70
2022-09-12T20:12:09.404Z,12.60
2022-09-12T20:17:13.053Z,12.60
2022-09-12T20:22:16.513Z,12.80
2022-09-12T20:27:20.965Z,12.70
2022-09-12T20:32:24.142Z,12.60
2022-09-12T20:37:27.366Z,12.50
2022-09-12T20:42:31.705Z,12.40
2022-09-12T20:47:34.799Z,12.50
2022-09-12T20:52:37.807Z,12.40
2022-09-12T20:57:42.171Z,12.30
2022-09-12T21:02:45.257Z,12.30
2022-09-12T21:07:48.265Z,12.20
2022-09-12T21:12:54.017Z,12.20
2022-09-12T21:17:57.210Z,12.20
2022-09-12T21:23:00.495Z,12.10
2022-09-12T21:28:04.816Z,12.10
2022-09-12T21:33:07.812Z,12.10
2022-09-12T21:38:11.121Z,11.90
2022-09-12T21:43:15.838Z,11.90
2022-09-12T21:48:18.911Z,11.90
2022-09-12T21:53:22.511Z,11.70
2022-09-12T21:58:26.851Z,11.70
2022-09-12T22:03:29.909Z,11.70
2022-09-12T22:08:34.691Z,11.60
2022-09-12T22:13:43.844Z,11.60
2022-09-12T22:18:47.110Z,11.60
2022-09-12T22:24:09.123Z,11.50
2022-09-12T22:29:14.508Z,11.50
2022-09-12T22:34:17.692Z,11.40
2022-09-12T22:39:20.970Z,11.40
2022-09-12T22:44:25.461Z,11.40
2022-09-12T22:49:28.570Z,11.40
2022-09-12T22:54:31.615Z,11.40
2022-09-12T22:59:36.094Z,11.60
2022-09-12T23:04:39.158Z,11.50
2022-09-12T23:09:42.264Z,11.40
2022-09-12T23:14:47.487Z,11.50
2022-09-12T23:19:50.539Z,11.50
2022-09-12T23:24:53.617Z,11.40
2022-09-12T23:29:58.019Z,11.40
2022-09-12T23:35:01.115Z,11.40
2022-09-12T23:40:04.714Z,11.40
2022-09-12T23:45:10.494Z,11.60
2022-09-12T23:50:13.741Z,11.40
2022-09-12T23:55:16.927Z,11.40
